Grand Rapids, Minnesota
Current Conditions -  °F | °C
As of 4:35 PM on Monday 20 Oct 2014 (Local Time) from KGPZ Reporting Station
Overcast Overcast  
Wind Chill: 42°   Ceiling: 1900
Heat Index: 46°   Visibility: 10mi
Dew Point: 37°   Wind: 9mph
Humidity: 71%   Direction: 340°NNW
Pressure: 30.05"   Gusts: NA
Location:  47.24°N, 93.53°W
Report Text: KGPZ 202135Z AUTO 34008KT 10SM OVC019 08/03 A3005 RMK AO1
Loading
Personal Weather Stations






























Interactive Weather Map
Tropical Storm Tracking
New forecast layout! Learn more

10-Day Weather Forecast

Advertisements
Track Severe Weather on mobile